Time;durP1;ratioP1;P1;durP2;ratioP2;P2;SDS_P1;SDS_P2;PMS_P1;PMS_P2;Temp;Humidity;BMP_temperature;BMP_pressure;BME280_temperature;BME280_humidity;BME280_pressure;Samples;Min_cycle;Max_cycle;Signal;HPM_P1;HPM_P2
2021/10/31 00:01:36;;;;;;;3.92;2.50;;;13.30;99.90;;;;;;4119865;28;20038;-75
2021/10/31 00:03:37;;;;;;;2.33;2.13;;;13.30;99.90;;;;;;4125875;28;20027;-75
2021/10/31 00:05:38;;;;;;;5.15;2.53;;;13.20;99.90;;;;;;4122926;28;20111;-75
2021/10/31 00:07:39;;;;;;;5.05;2.65;;;13.20;99.90;;;;;;4123721;28;20128;-75
2021/10/31 00:09:39;;;;;;;6.22;2.75;;;13.20;99.90;;;;;;4124291;28;20042;-75
2021/10/31 00:11:40;;;;;;;5.13;3.00;;;13.20;99.90;;;;;;4120970;28;20766;-75
2021/10/31 00:13:41;;;;;;;6.15;3.13;;;13.20;99.90;;;;;;4120558;28;20035;-75
2021/10/31 00:15:41;;;;;;;7.43;3.03;;;13.20;99.90;;;;;;4124190;28;20672;-75
2021/10/31 00:17:42;;;;;;;4.22;3.00;;;13.10;99.90;;;;;;4124669;28;20034;-75
2021/10/31 00:19:42;;;;;;;5.78;2.95;;;13.10;99.90;;;;;;4124208;28;20035;-75
2021/10/31 00:21:43;;;;;;;3.92;2.75;;;13.10;99.90;;;;;;4119536;28;20038;-75
2021/10/31 00:23:44;;;;;;;4.55;3.15;;;13.10;99.90;;;;;;4124269;28;20500;-75
2021/10/31 00:25:44;;;;;;;7.63;3.47;;;13.10;99.90;;;;;;4120369;28;20125;-75
2021/10/31 00:27:45;;;;;;;4.28;3.10;;;13.10;99.90;;;;;;4121027;28;20042;-75
2021/10/31 00:29:46;;;;;;;4.90;2.97;;;13.00;99.90;;;;;;4125054;28;20129;-75
2021/10/31 00:31:46;;;;;;;5.40;2.92;;;13.10;99.90;;;;;;4123720;28;20531;-75
2021/10/31 00:33:47;;;;;;;8.40;3.20;;;13.10;99.90;;;;;;4120217;28;20498;-75
2021/10/31 00:35:48;;;;;;;4.97;2.90;;;13.00;99.90;;;;;;4120009;28;20045;-75
2021/10/31 00:37:48;;;;;;;4.78;3.17;;;13.10;99.90;;;;;;4123534;28;20034;-75
2021/10/31 00:39:49;;;;;;;4.38;3.05;;;13.00;99.90;;;;;;4122635;28;20071;-75
2021/10/31 00:41:50;;;;;;;3.38;2.72;;;13.00;99.90;;;;;;4121319;28;20058;-75
2021/10/31 00:43:50;;;;;;;3.35;2.45;;;13.00;99.90;;;;;;4120429;28;20489;-75
2021/10/31 00:45:51;;;;;;;3.40;2.67;;;13.00;99.90;;;;;;4125327;28;20038;-75
2021/10/31 00:47:53;;;;;;;3.15;2.38;;;13.00;99.90;;;;;;4126218;28;20630;-75
2021/10/31 00:49:54;;;;;;;7.18;2.90;;;13.00;99.90;;;;;;4123186;28;20073;-75
2021/10/31 00:51:55;;;;;;;4.25;2.63;;;13.00;99.90;;;;;;4125954;28;20030;-75
2021/10/31 00:53:57;;;;;;;4.50;2.70;;;13.00;99.90;;;;;;4130564;28;20033;-75
2021/10/31 00:55:59;;;;;;;;;;;13.00;99.90;;;;;;4126150;28;20061;-75
2021/10/31 00:58:00;;;;;;;5.10;2.72;;;13.00;99.90;;;;;;4124325;28;19937;-75
2021/10/31 01:00:00;;;;;;;3.70;2.75;;;13.00;99.90;;;;;;4123686;28;20043;-75
2021/10/31 01:02:06;;;;;;;4.25;2.80;;;12.90;99.90;;;;;;4108669;28;20164;-75
2021/10/31 01:04:07;;;;;;;3.97;2.35;;;12.90;99.90;;;;;;4139333;28;20030;-75
2021/10/31 01:06:19;;;;;;;2.80;2.28;;;12.90;99.90;;;;;;4124926;28;20688;-75
2021/10/31 01:08:39;;;;;;;5.57;2.60;;;12.90;99.90;;;;;;4124268;28;22047;-75
2021/10/31 01:11:02;;;;;;;4.57;2.30;;;12.90;99.90;;;;;;4146807;28;20583;-75
2021/10/31 01:13:34;;;;;;;2.80;2.40;;;12.90;99.90;;;;;;4127892;28;20414;-75
2021/10/31 01:16:01;;;;;;;5.22;2.42;;;12.90;99.90;;;;;;4122337;28;20062;-75
2021/10/31 01:18:01;;;;;;;4.40;2.42;;;12.90;99.90;;;;;;4125591;28;20394;-75
2021/10/31 01:20:22;;;;;;;3.53;2.63;;;12.80;99.90;;;;;;4123687;28;20039;-75
2021/10/31 01:22:38;;;;;;;2.90;2.22;;;12.90;99.90;;;;;;4126342;28;20038;-75
2021/10/31 01:25:05;;;;;;;2.65;2.10;;;12.90;99.90;;;;;;4124055;28;20049;-75
2021/10/31 01:27:38;;;;;;;5.03;2.50;;;12.80;99.90;;;;;;4123960;28;20035;-75
2021/10/31 01:29:44;;;;;;;3.35;2.25;;;12.90;99.90;;;;;;4123983;28;20664;-75
2021/10/31 01:32:03;;;;;;;4.30;2.38;;;12.90;99.90;;;;;;4122205;28;20034;-75
2021/10/31 01:34:28;;;;;;;3.05;2.47;;;12.90;99.90;;;;;;4126495;28;20376;-75
2021/10/31 01:36:58;;;;;;;5.07;2.72;;;12.90;99.90;;;;;;4120344;28;20607;-75
2021/10/31 01:39:23;;;;;;;3.40;2.20;;;12.90;99.90;;;;;;4140204;28;20049;-75
2021/10/31 01:41:39;;;;;;;2.70;2.10;;;12.90;99.90;;;;;;4125636;28;20409;-75
2021/10/31 01:44:04;;;;;;;6.00;2.65;;;12.90;99.90;;;;;;4143371;28;20033;-75
2021/10/31 01:46:46;;;;;;;5.10;2.72;;;12.90;99.90;;;;;;4123756;28;20042;-75
2021/10/31 01:48:59;;;;;;;5.22;2.55;;;12.90;99.90;;;;;;4093329;28;20153;-75
2021/10/31 01:51:06;;;;;;;3.38;2.45;;;12.90;99.90;;;;;;4140348;28;20038;-75
2021/10/31 01:53:25;;;;;;;4.97;2.97;;;12.90;99.90;;;;;;4123207;28;20042;-75
2021/10/31 01:55:31;;;;;;;3.53;2.75;;;12.80;99.90;;;;;;4123734;28;20430;-75
2021/10/31 01:57:36;;;;;;;3.38;2.63;;;12.80;99.90;;;;;;4125178;28;20038;-75
2021/10/31 01:59:42;;;;;;;4.60;2.70;;;12.80;99.90;;;;;;4110555;28;20027;-75
2021/10/31 02:01:44;;;;;;;4.32;2.25;;;12.80;99.90;;;;;;4125162;28;20052;-75
2021/10/31 02:03:49;;;;;;;3.33;2.80;;;12.80;99.90;;;;;;4124678;28;20038;-75
2021/10/31 02:05:52;;;;;;;4.15;2.58;;;12.80;99.90;;;;;;4143872;28;20422;-75
2021/10/31 02:07:56;;;;;;;4.03;2.40;;;12.80;99.90;;;;;;4125069;28;20053;-75
2021/10/31 02:09:59;;;;;;;5.47;3.25;;;12.80;99.90;;;;;;4123577;28;20041;-75
2021/10/31 02:12:01;;;;;;;4.78;2.47;;;12.70;99.90;;;;;;4141533;28;20592;-75
2021/10/31 02:14:02;;;;;;;3.72;2.83;;;12.70;99.90;;;;;;4124887;28;20038;-76
2021/10/31 02:16:03;;;;;;;4.10;2.78;;;12.70;99.90;;;;;;4125921;28;20379;-75
2021/10/31 02:18:05;;;;;;;4.78;2.92;;;12.70;99.90;;;;;;4126392;28;20041;-75
2021/10/31 02:20:06;;;;;;;4.78;3.17;;;12.60;99.90;;;;;;4128673;28;20072;-75
2021/10/31 02:22:10;;;;;;;4.70;2.95;;;12.60;99.90;;;;;;4123917;28;20053;-75
2021/10/31 02:24:11;;;;;;;5.30;3.00;;;12.60;99.90;;;;;;4123380;28;20050;-75
2021/10/31 02:26:13;;;;;;;4.90;3.08;;;12.60;99.90;;;;;;4124166;28;20042;-75
2021/10/31 02:28:14;;;;;;;4.78;3.35;;;12.50;99.90;;;;;;4122103;28;20042;-75
2021/10/31 02:30:16;;;;;;;4.40;3.05;;;12.50;99.90;;;;;;4121002;28;20632;-75
2021/10/31 02:32:18;;;;;;;5.40;3.45;;;12.50;99.90;;;;;;4123967;28;20030;-75
2021/10/31 02:34:18;;;;;;;6.50;3.83;;;12.50;99.90;;;;;;4126345;28;20125;-75
2021/10/31 02:36:19;;;;;;;5.80;3.53;;;12.50;99.90;;;;;;4128334;28;20128;-76
2021/10/31 02:38:20;;;;;;;7.38;3.42;;;12.50;99.90;;;;;;4121235;28;20042;-75
2021/10/31 02:40:22;;;;;;;5.47;3.08;;;12.40;99.90;;;;;;4120531;28;20129;-75
2021/10/31 02:42:23;;;;;;;;;;;12.40;99.90;;;;;;4123859;28;20039;-75
2021/10/31 02:44:24;;;;;;;3.88;2.80;;;12.40;99.90;;;;;;4124876;28;19921;-75
2021/10/31 02:46:28;;;;;;;5.60;3.30;;;12.50;99.90;;;;;;4126340;28;20517;-75
2021/10/31 02:48:30;;;;;;;5.13;3.13;;;12.40;99.90;;;;;;4128649;28;20168;-75
2021/10/31 02:50:43;;;;;;;3.92;2.97;;;12.40;99.90;;;;;;4122943;28;20056;-75
2021/10/31 02:52:47;;;;;;;4.25;3.15;;;12.40;99.90;;;;;;4122997;28;20069;-75
2021/10/31 02:55:14;;;;;;;4.47;2.95;;;12.40;99.90;;;;;;4125277;28;20043;-75
2021/10/31 02:57:23;;;;;;;5.53;3.15;;;12.40;99.90;;;;;;4121047;28;20101;-75
2021/10/31 02:59:50;;;;;;;6.35;3.65;;;12.40;99.90;;;;;;4111062;28;20042;-75
2021/10/31 03:01:51;;;;;;;4.93;3.25;;;12.40;99.90;;;;;;4122403;28;20038;-75
2021/10/31 03:03:54;;;;;;;6.90;3.00;;;12.30;99.90;;;;;;4120465;28;20045;-75
2021/10/31 03:05:57;;;;;;;5.10;3.08;;;12.30;99.90;;;;;;4106385;28;20054;-75
2021/10/31 03:07:58;;;;;;;5.18;3.45;;;12.30;99.90;;;;;;4123309;28;20062;-75
2021/10/31 03:09:58;;;;;;;5.13;3.63;;;12.30;99.90;;;;;;4125294;28;20096;-75
2021/10/31 03:12:05;;;;;;;5.30;3.40;;;12.30;99.90;;;;;;4125016;28;20073;-75
2021/10/31 03:14:06;;;;;;;7.55;3.15;;;12.30;99.90;;;;;;4122998;28;20089;-75
2021/10/31 03:16:08;;;;;;;6.38;3.70;;;12.30;99.90;;;;;;4124506;28;20050;-75
2021/10/31 03:18:08;;;;;;;8.45;3.40;;;12.30;99.90;;;;;;4124264;28;20034;-75
2021/10/31 03:20:09;;;;;;;4.18;3.00;;;12.20;99.90;;;;;;4123070;28;20633;-75
2021/10/31 03:22:10;;;;;;;4.95;2.80;;;12.30;99.90;;;;;;4111051;28;20118;-75
2021/10/31 03:24:11;;;;;;;5.20;3.10;;;12.30;99.90;;;;;;4124344;28;20058;-75
2021/10/31 03:26:11;;;;;;;5.13;2.92;;;12.30;99.90;;;;;;4121483;28;20049;-75
2021/10/31 03:28:12;;;;;;;5.32;2.90;;;12.30;99.90;;;;;;4123641;28;20114;-75
2021/10/31 03:30:13;;;;;;;4.68;2.60;;;12.30;99.90;;;;;;4122587;28;20089;-75
2021/10/31 03:32:14;;;;;;;7.22;2.70;;;12.30;99.90;;;;;;4123992;28;20038;-75
2021/10/31 03:34:15;;;;;;;6.63;3.17;;;12.30;99.90;;;;;;4125501;28;20108;-75
2021/10/31 03:36:15;;;;;;;5.85;3.05;;;12.30;99.90;;;;;;4122244;28;20117;-75
2021/10/31 03:38:16;;;;;;;4.78;2.50;;;12.30;99.90;;;;;;4119920;28;20057;-75
2021/10/31 03:40:17;;;;;;;5.30;2.95;;;12.30;99.90;;;;;;4122628;28;20120;-75
2021/10/31 03:42:17;;;;;;;4.50;2.95;;;12.30;99.90;;;;;;4121129;28;20042;-75
2021/10/31 03:44:19;;;;;;;4.05;2.63;;;12.30;99.90;;;;;;4121218;28;20368;-75
2021/10/31 03:46:20;;;;;;;6.93;3.67;;;12.30;99.90;;;;;;4123087;28;20037;-75
2021/10/31 03:48:21;;;;;;;6.75;2.72;;;12.30;99.90;;;;;;4124242;28;20557;-75
2021/10/31 03:50:22;;;;;;;5.18;2.70;;;12.30;99.90;;;;;;4122434;28;21452;-75
2021/10/31 03:52:22;;;;;;;4.93;2.67;;;12.30;99.90;;;;;;4121140;28;20166;-76
2021/10/31 03:54:23;;;;;;;3.58;2.40;;;12.30;99.90;;;;;;4121347;28;20038;-75
2021/10/31 03:56:24;;;;;;;3.75;2.53;;;12.30;99.90;;;;;;4125568;28;20129;-75
2021/10/31 03:58:24;;;;;;;3.80;2.42;;;12.30;99.90;;;;;;4108933;28;20038;-75
2021/10/31 04:00:25;;;;;;;4.95;2.85;;;12.30;99.90;;;;;;4120310;28;20039;-75
2021/10/31 04:02:25;;;;;;;4.72;2.60;;;12.30;99.90;;;;;;4123951;28;20046;-75
2021/10/31 04:04:26;;;;;;;4.40;2.78;;;12.30;99.90;;;;;;4127848;28;20050;-75
2021/10/31 04:06:27;;;;;;;5.65;2.80;;;12.30;99.90;;;;;;4123615;28;20516;-75
2021/10/31 04:08:28;;;;;;;4.15;2.65;;;12.30;99.90;;;;;;4123310;28;20473;-75
2021/10/31 04:10:29;;;;;;;2.92;2.25;;;12.30;99.90;;;;;;4106348;28;20113;-75
2021/10/31 04:12:30;;;;;;;4.28;2.80;;;12.30;99.90;;;;;;4126369;28;20482;-75
2021/10/31 04:14:30;;;;;;;3.42;2.72;;;12.40;99.90;;;;;;4120292;28;20128;-75
2021/10/31 04:16:31;;;;;;;3.88;2.80;;;12.40;99.90;;;;;;4121150;28;20494;-75
2021/10/31 04:18:32;;;;;;;3.45;2.35;;;12.40;99.90;;;;;;4121968;28;20039;-75
2021/10/31 04:20:33;;;;;;;4.93;2.53;;;12.40;99.90;;;;;;4123082;28;20084;-75
2021/10/31 04:22:34;;;;;;;7.05;3.28;;;12.40;99.90;;;;;;4122734;28;20052;-75
2021/10/31 04:24:35;;;;;;;4.25;3.03;;;12.40;99.90;;;;;;4126256;28;20062;-75
2021/10/31 04:26:35;;;;;;;3.28;2.72;;;12.30;99.90;;;;;;4124253;28;20042;-75
2021/10/31 04:28:36;;;;;;;4.35;2.95;;;12.30;99.90;;;;;;4122514;28;20054;-75
2021/10/31 04:30:37;;;;;;;4.72;2.70;;;12.30;99.90;;;;;;4121572;28;20077;-75
2021/10/31 04:32:38;;;;;;;4.70;2.63;;;12.30;99.90;;;;;;4124893;28;20477;-75
2021/10/31 04:34:38;;;;;;;4.70;2.55;;;12.30;99.90;;;;;;4122021;28;20050;-75
2021/10/31 04:36:39;;;;;;;3.50;2.78;;;12.30;99.90;;;;;;4122250;28;20062;-75
2021/10/31 04:38:40;;;;;;;3.80;2.90;;;12.30;99.90;;;;;;4108030;28;20053;-75
2021/10/31 04:40:41;;;;;;;5.85;2.97;;;12.30;99.90;;;;;;4104477;28;20043;-75
2021/10/31 04:42:42;;;;;;;4.78;2.65;;;12.30;99.90;;;;;;4122380;28;20069;-75
2021/10/31 04:44:43;;;;;;;4.45;3.10;;;12.30;99.90;;;;;;4123797;28;20038;-75
2021/10/31 04:46:44;;;;;;;3.10;2.80;;;12.30;99.90;;;;;;4121245;28;20513;-75
2021/10/31 04:48:44;;;;;;;4.78;2.80;;;12.30;99.90;;;;;;4125897;28;20045;-75
2021/10/31 04:50:45;;;;;;;4.50;3.28;;;12.30;99.90;;;;;;4122771;28;20030;-75
2021/10/31 04:52:46;;;;;;;4.35;2.80;;;12.30;99.90;;;;;;4123221;28;20496;-75
2021/10/31 04:54:46;;;;;;;5.07;2.75;;;12.30;99.90;;;;;;4127015;28;20041;-75
2021/10/31 04:56:47;;;;;;;3.25;2.50;;;12.30;99.90;;;;;;4121620;28;20039;-75
2021/10/31 04:58:51;;;;;;;3.67;2.50;;;12.30;99.90;;;;;;4121074;28;20096;-75
2021/10/31 05:00:51;;;;;;;3.30;2.40;;;12.30;99.90;;;;;;4119130;28;20622;-75
2021/10/31 05:02:52;;;;;;;3.42;2.65;;;12.40;99.90;;;;;;4123256;28;20030;-75
2021/10/31 05:04:53;;;;;;;5.85;2.72;;;12.40;99.90;;;;;;4124721;28;20061;-75
2021/10/31 05:06:53;;;;;;;3.83;2.42;;;12.40;99.90;;;;;;4119551;28;20026;-75
2021/10/31 05:08:54;;;;;;;4.25;2.72;;;12.40;99.90;;;;;;4122648;28;20042;-75
2021/10/31 05:10:55;;;;;;;3.28;2.42;;;12.40;99.90;;;;;;4122516;28;20701;-75
2021/10/31 05:12:57;;;;;;;4.43;2.80;;;12.50;99.90;;;;;;4106011;28;20035;-75
2021/10/31 05:14:57;;;;;;;3.13;2.60;;;12.50;99.90;;;;;;4122582;28;20049;-75
2021/10/31 05:16:58;;;;;;;7.65;3.47;;;12.50;99.90;;;;;;4126027;28;20039;-75
2021/10/31 05:18:59;;;;;;;5.63;3.75;;;12.50;99.90;;;;;;4124382;28;20034;-75
2021/10/31 05:21:00;;;;;;;4.47;3.33;;;12.40;99.90;;;;;;4122606;28;20436;-75
2021/10/31 05:23:01;;;;;;;4.30;3.45;;;12.40;99.90;;;;;;4141859;28;20038;-75
2021/10/31 05:25:03;;;;;;;5.18;3.83;;;12.40;99.90;;;;;;4108310;28;20038;-75
2021/10/31 05:27:04;;;;;;;6.25;3.60;;;12.40;99.90;;;;;;4124930;28;20058;-75
2021/10/31 05:29:05;;;;;;;5.53;3.90;;;12.30;99.90;;;;;;4123502;28;20538;-75
2021/10/31 05:31:06;;;;;;;5.28;3.75;;;12.30;99.90;;;;;;4124881;28;20038;-75
2021/10/31 05:33:06;;;;;;;9.18;5.45;;;12.20;99.90;;;;;;4125559;28;20045;-75
2021/10/31 05:35:09;;;;;;;6.93;4.63;;;12.20;99.90;;;;;;4128432;28;20042;-75
2021/10/31 05:37:11;;;;;;;5.60;4.25;;;12.20;99.90;;;;;;4126682;28;21176;-75
2021/10/31 05:39:12;;;;;;;7.13;4.03;;;12.20;99.90;;;;;;4123545;28;20100;-75
2021/10/31 05:41:12;;;;;;;7.60;5.07;;;12.10;99.90;;;;;;4121707;28;20751;-75
2021/10/31 05:43:13;;;;;;;8.48;4.25;;;12.20;99.90;;;;;;4109484;28;20046;-75
2021/10/31 05:45:13;;;;;;;8.68;4.60;;;12.10;99.90;;;;;;4123323;28;20058;-74
2021/10/31 05:47:14;;;;;;;5.13;4.10;;;12.10;99.90;;;;;;4121781;28;20070;-75
2021/10/31 05:49:15;;;;;;;5.53;4.15;;;12.20;99.90;;;;;;4125618;28;20583;-75
2021/10/31 05:51:16;;;;;;;5.95;4.38;;;12.10;99.90;;;;;;4120729;28;20121;-75
2021/10/31 05:53:17;;;;;;;7.88;4.13;;;12.10;99.90;;;;;;4111087;28;20054;-75
2021/10/31 05:55:18;;;;;;;6.38;3.80;;;12.20;99.90;;;;;;4123178;28;20134;-75
2021/10/31 05:57:18;;;;;;;7.00;4.13;;;12.10;99.90;;;;;;4124084;28;20077;-75
2021/10/31 05:59:19;;;;;;;7.28;4.57;;;12.20;99.90;;;;;;4141754;28;20155;-75
2021/10/31 06:01:19;;;;;;;7.50;4.25;;;12.20;99.90;;;;;;4119668;28;20840;-75
2021/10/31 06:03:20;;;;;;;10.48;4.32;;;12.20;99.90;;;;;;4119385;28;20721;-75
2021/10/31 06:05:22;;;;;;;6.43;4.47;;;12.10;99.90;;;;;;4125992;28;20030;-75
2021/10/31 06:07:23;;;;;;;9.77;4.65;;;12.10;99.90;;;;;;4121723;28;20671;-76
2021/10/31 06:09:24;;;;;;;6.88;4.97;;;12.10;99.90;;;;;;4122550;28;20090;-76
2021/10/31 06:11:24;;;;;;;8.95;5.47;;;12.10;99.90;;;;;;4123191;28;20050;-76
2021/10/31 06:13:26;;;;;;;7.40;5.30;;;12.10;99.90;;;;;;4122886;28;20045;-76
2021/10/31 06:15:27;;;;;;;7.03;4.57;;;12.10;99.90;;;;;;4126775;28;20048;-76
2021/10/31 06:17:27;;;;;;;9.70;4.72;;;12.10;99.90;;;;;;4120289;28;20050;-76
2021/10/31 06:19:29;;;;;;;8.00;4.38;;;12.10;99.90;;;;;;4122752;28;20042;-76
2021/10/31 06:21:30;;;;;;;8.38;5.18;;;12.00;99.90;;;;;;4123175;28;20058;-76
2021/10/31 06:23:31;;;;;;;6.88;4.80;;;12.10;99.90;;;;;;4123816;28;20056;-76
2021/10/31 06:25:31;;;;;;;6.75;4.03;;;12.00;99.90;;;;;;4122381;28;20050;-76
2021/10/31 06:27:32;;;;;;;5.18;3.85;;;12.00;99.90;;;;;;4125291;28;20117;-77
2021/10/31 06:29:33;;;;;;;6.40;4.70;;;12.10;99.90;;;;;;4123406;28;20547;-76
2021/10/31 06:31:34;;;;;;;8.30;4.47;;;12.00;99.90;;;;;;4124028;28;20034;-76
2021/10/31 06:33:34;;;;;;;7.60;4.63;;;12.00;99.90;;;;;;4126045;28;20038;-76
2021/10/31 06:35:35;;;;;;;9.18;4.50;;;12.00;99.90;;;;;;4122634;28;20070;-76
2021/10/31 06:37:36;;;;;;;8.45;5.30;;;12.00;99.90;;;;;;4127938;28;20096;-77
2021/10/31 06:39:36;;;;;;;5.18;3.97;;;12.00;99.90;;;;;;4120399;28;20405;-76
2021/10/31 06:41:37;;;;;;;7.07;4.00;;;12.00;99.90;;;;;;4124111;28;20486;-76
2021/10/31 06:43:38;;;;;;;7.45;4.40;;;12.00;99.90;;;;;;4116969;28;20046;-77
2021/10/31 06:45:38;;;;;;;7.63;4.65;;;12.00;99.90;;;;;;4106717;28;20081;-77
2021/10/31 06:47:39;;;;;;;7.78;4.72;;;12.00;99.90;;;;;;4136577;28;20109;-77
2021/10/31 06:49:41;;;;;;;7.18;4.05;;;12.00;99.90;;;;;;4107310;28;20043;-77
2021/10/31 06:51:42;;;;;;;7.28;3.70;;;12.00;99.90;;;;;;4123686;28;20030;-77
2021/10/31 06:53:42;;;;;;;4.65;3.55;;;12.00;99.90;;;;;;4120980;28;20527;-78
2021/10/31 06:55:44;;;;;;;7.05;4.32;;;12.00;99.90;;;;;;4118639;28;20407;-78
2021/10/31 06:57:44;;;;;;;6.55;4.10;;;12.00;99.90;;;;;;4125980;28;20638;-78
2021/10/31 06:59:46;;;;;;;4.72;3.55;;;12.00;99.90;;;;;;4108770;28;20033;-77
2021/10/31 07:01:46;;;;;;;6.63;3.70;;;12.00;99.90;;;;;;4113808;28;20050;-77
2021/10/31 07:03:48;;;;;;;5.55;3.70;;;12.00;99.90;;;;;;4126483;28;20034;-78
2021/10/31 07:05:49;;;;;;;6.22;3.83;;;12.10;99.90;;;;;;4124603;28;20037;-77
2021/10/31 07:07:49;;;;;;;5.63;3.92;;;12.10;99.90;;;;;;4127492;28;20433;-77
2021/10/31 07:09:51;;;;;;;5.82;3.90;;;12.10;99.90;;;;;;4126992;28;20098;-77
2021/10/31 07:11:52;;;;;;;5.13;3.78;;;12.10;99.90;;;;;;4107733;28;20045;-78
2021/10/31 07:13:53;;;;;;;8.02;4.60;;;12.10;99.90;;;;;;4117325;28;20101;-78
2021/10/31 07:15:54;;;;;;;11.05;5.18;;;12.10;99.90;;;;;;4124548;28;20788;-77
2021/10/31 07:17:57;;;;;;;7.25;4.95;;;12.10;99.90;;;;;;4124922;28;20035;-77
2021/10/31 07:19:57;;;;;;;6.50;4.85;;;12.10;99.90;;;;;;4129492;28;20045;-77
2021/10/31 07:21:58;;;;;;;7.80;4.38;;;12.00;99.90;;;;;;4122574;28;20606;-78
2021/10/31 07:23:59;;;;;;;8.43;5.00;;;12.00;99.90;;;;;;4124763;28;20042;-77
2021/10/31 07:26:00;;;;;;;5.82;4.60;;;12.00;99.90;;;;;;4117639;28;20474;-77
2021/10/31 07:28:00;;;;;;;6.85;4.68;;;12.00;99.90;;;;;;4125929;28;20502;-78
2021/10/31 07:30:04;;;;;;;9.23;5.00;;;12.00;99.90;;;;;;4126938;28;20037;-77
2021/10/31 07:32:05;;;;;;;10.20;4.72;;;11.90;99.90;;;;;;4097810;28;20104;-77
2021/10/31 07:34:10;;;;;;;6.47;4.60;;;11.90;99.90;;;;;;4116235;28;20053;-77
2021/10/31 07:36:11;;;;;;;7.43;4.32;;;11.90;99.90;;;;;;4107853;28;20117;-77
2021/10/31 07:38:12;;;;;;;8.60;5.05;;;12.00;99.90;;;;;;4119394;28;20038;-77
2021/10/31 07:40:13;;;;;;;7.60;4.88;;;11.90;99.90;;;;;;4099587;28;20038;-77
2021/10/31 07:42:15;;;;;;;5.63;4.25;;;11.90;99.90;;;;;;4121664;28;20118;-78
2021/10/31 07:44:16;;;;;;;9.82;4.20;;;11.90;99.90;;;;;;4124806;28;20030;-77
2021/10/31 07:46:17;;;;;;;6.68;3.95;;;11.90;99.90;;;;;;4124465;28;20042;-78
2021/10/31 07:48:18;;;;;;;6.15;3.83;;;11.90;99.90;;;;;;4109370;28;20061;-78
2021/10/31 07:50:18;;;;;;;8.23;4.47;;;12.00;99.90;;;;;;4125912;28;20116;-78
2021/10/31 07:52:19;;;;;;;9.20;4.35;;;12.00;99.90;;;;;;4122724;28;20030;-78
2021/10/31 07:54:25;;;;;;;6.85;4.07;;;12.00;99.90;;;;;;4122011;28;20065;-78
2021/10/31 07:56:31;;;;;;;7.00;4.15;;;12.00;99.90;;;;;;4119542;28;20038;-78
2021/10/31 07:58:32;;;;;;;4.70;3.90;;;12.10;99.90;;;;;;4136583;28;20046;-77
2021/10/31 08:00:34;;;;;;;7.15;3.40;;;12.20;99.90;;;;;;4103634;28;20031;-78
2021/10/31 08:02:35;;;;;;;5.87;3.53;;;12.30;99.90;;;;;;4122906;28;20038;-77
2021/10/31 08:04:35;;;;;;;7.85;4.32;;;12.50;99.90;;;;;;4120700;28;20096;-74
2021/10/31 08:06:36;;;;;;;7.43;4.30;;;12.70;99.90;;;;;;4113490;28;20457;-75
2021/10/31 08:08:37;;;;;;;5.95;3.92;;;12.90;99.90;;;;;;4120570;28;20054;-75
2021/10/31 08:10:38;;;;;;;4.90;3.45;;;13.10;99.90;;;;;;4121462;28;20046;-76
2021/10/31 08:12:38;;;;;;;6.60;3.58;;;13.30;99.90;;;;;;4118327;28;20169;-75
2021/10/31 08:14:39;;;;;;;6.20;3.83;;;13.50;99.90;;;;;;4119357;28;20502;-75
2021/10/31 08:16:40;;;;;;;4.72;3.47;;;13.70;99.90;;;;;;4120230;28;20040;-75
2021/10/31 08:18:41;;;;;;;7.25;3.63;;;13.70;99.90;;;;;;4120339;28;20046;-75
2021/10/31 08:20:42;;;;;;;2.97;2.67;;;13.90;99.90;;;;;;4122519;28;20076;-75
2021/10/31 08:22:44;;;;;;;7.05;3.30;;;14.00;99.90;;;;;;4120828;28;20058;-76
2021/10/31 08:24:45;;;;;;;5.82;3.97;;;14.10;99.90;;;;;;4119565;28;20046;-76
2021/10/31 08:26:47;;;;;;;4.65;3.28;;;14.10;99.90;;;;;;4124309;28;20053;-76
2021/10/31 08:28:49;;;;;;;6.82;3.40;;;14.20;99.90;;;;;;4124619;28;20046;-75
2021/10/31 08:30:57;;;;;;;5.53;4.00;;;14.20;99.90;;;;;;4121766;28;20054;-76
2021/10/31 08:33:07;;;;;;;4.85;3.05;;;14.20;99.90;;;;;;4121502;28;20046;-78
2021/10/31 08:35:07;;;;;;;6.63;4.15;;;14.20;99.90;;;;;;4122109;28;20151;-75
2021/10/31 08:37:08;;;;;;;4.28;3.47;;;14.20;99.90;;;;;;4119897;28;20038;-76
2021/10/31 08:39:09;;;;;;;8.18;3.70;;;14.20;99.90;;;;;;4122476;28;20108;-75
2021/10/31 08:41:10;;;;;;;5.25;3.40;;;14.20;99.90;;;;;;4119681;28;20062;-75
2021/10/31 08:43:11;;;;;;;6.95;3.72;;;14.10;99.90;;;;;;4120910;28;20045;-75
2021/10/31 08:45:18;;;;;;;6.13;3.50;;;14.10;99.90;;;;;;4123082;28;20409;-75
2021/10/31 08:47:18;;;;;;;5.90;3.20;;;14.10;99.90;;;;;;4126721;28;20081;-75
2021/10/31 08:49:19;;;;;;;5.35;3.33;;;14.10;99.90;;;;;;4120489;28;20042;-75
2021/10/31 08:51:22;;;;;;;3.90;2.45;;;14.10;99.90;;;;;;4120696;28;20053;-75
2021/10/31 08:53:26;;;;;;;;;;;14.10;99.90;;;;;;4126178;28;20042;-75
2021/10/31 08:55:27;;;;;;;3.63;2.90;;;14.10;99.90;;;;;;4122123;28;20547;-76
2021/10/31 08:57:28;;;;;;;7.18;3.30;;;14.10;99.90;;;;;;4121889;28;20180;-76
2021/10/31 08:59:30;;;;;;;3.20;2.67;;;14.00;99.90;;;;;;4124094;28;20484;-75
2021/10/31 09:01:31;;;;;;;4.20;2.70;;;14.00;99.90;;;;;;4120184;28;20548;-75
2021/10/31 09:03:32;;;;;;;3.35;2.28;;;14.00;99.90;;;;;;4102301;28;20034;-76
2021/10/31 09:05:33;;;;;;;5.85;2.22;;;13.90;99.90;;;;;;4123734;28;20035;-75
2021/10/31 09:07:34;;;;;;;2.90;2.20;;;13.90;99.90;;;;;;4105423;28;20131;-75
2021/10/31 09:09:36;;;;;;;3.60;2.20;;;13.90;99.90;;;;;;4126847;28;20044;-75
2021/10/31 09:11:36;;;;;;;2.75;2.08;;;13.90;99.90;;;;;;4127162;28;20754;-76
2021/10/31 09:13:38;;;;;;;3.55;2.35;;;13.90;99.90;;;;;;4124065;28;20066;-75
2021/10/31 09:15:38;;;;;;;3.88;2.33;;;13.80;99.90;;;;;;4127019;28;20046;-75
2021/10/31 09:17:39;;;;;;;3.58;2.28;;;13.80;99.90;;;;;;4126374;28;20770;-75
2021/10/31 09:19:40;;;;;;;4.05;2.15;;;13.80;99.90;;;;;;4124785;28;20058;-74
2021/10/31 09:21:41;;;;;;;3.45;2.13;;;13.80;99.90;;;;;;4121925;28;20038;-74
2021/10/31 09:23:41;;;;;;;2.28;1.60;;;13.80;99.90;;;;;;4123747;28;20540;-75
2021/10/31 09:25:42;;;;;;;3.30;2.30;;;13.70;99.90;;;;;;4126410;28;20038;-74
2021/10/31 09:27:43;;;;;;;2.58;1.90;;;13.70;99.90;;;;;;4124788;28;20038;-74
2021/10/31 09:29:44;;;;;;;2.47;2.10;;;13.70;99.90;;;;;;4126601;28;20042;-74
2021/10/31 09:31:45;;;;;;;3.67;2.10;;;13.80;99.90;;;;;;4124711;28;20041;-75
2021/10/31 09:33:47;;;;;;;2.40;2.00;;;13.70;99.90;;;;;;4127660;28;20034;-75
2021/10/31 09:35:51;;;;;;;2.85;1.80;;;13.70;99.90;;;;;;4126886;28;20112;-75
2021/10/31 09:37:58;;;;;;;3.65;2.05;;;13.80;99.90;;;;;;4123817;28;20046;-74
2021/10/31 09:40:01;;;;;;;3.22;2.00;;;13.80;99.90;;;;;;4122729;28;20403;-74
2021/10/31 09:42:02;;;;;;;4.35;1.90;;;13.80;99.90;;;;;;4125652;28;20042;-74
2021/10/31 09:44:19;;;;;;;3.45;1.70;;;13.90;99.90;;;;;;4124987;28;20057;-75
2021/10/31 09:46:20;;;;;;;2.33;2.05;;;13.90;99.90;;;;;;4122001;28;20042;-75
2021/10/31 09:48:20;;;;;;;5.55;1.88;;;14.00;99.90;;;;;;4124492;28;20441;-75
2021/10/31 09:50:22;;;;;;;4.40;1.95;;;14.00;99.90;;;;;;4123221;28;20042;-75
2021/10/31 09:52:27;;;;;;;5.33;1.93;;;14.10;99.90;;;;;;4126357;28;20465;-75
2021/10/31 09:54:28;;;;;;;2.38;1.60;;;14.10;99.90;;;;;;4122066;28;20634;-75
2021/10/31 09:56:29;;;;;;;2.97;1.85;;;14.20;99.90;;;;;;4121796;28;20050;-75
2021/10/31 09:58:42;;;;;;;2.75;1.60;;;14.30;99.90;;;;;;4124113;28;20041;-75
2021/10/31 10:00:48;;;;;;;3.33;1.90;;;14.30;99.90;;;;;;4120678;28;20105;-75
2021/10/31 10:03:02;;;;;;;3.00;1.58;;;14.40;99.90;;;;;;4121820;28;20049;-75
2021/10/31 10:05:03;;;;;;;3.17;1.30;;;14.50;99.90;;;;;;4123350;28;20474;-74
2021/10/31 10:07:06;;;;;;;3.30;1.60;;;14.60;99.90;;;;;;4121791;28;20556;-75
2021/10/31 10:09:09;;;;;;;;;;;14.70;99.90;;;;;;4123223;28;20038;-75
2021/10/31 10:11:18;;;;;;;2.33;1.60;;;14.70;99.90;;;;;;4125818;28;19917;-75
2021/10/31 10:13:26;;;;;;;3.65;1.95;;;14.80;99.90;;;;;;4122824;28;20265;-75
2021/10/31 10:15:27;;;;;;;3.20;1.75;;;14.80;99.90;;;;;;4126710;28;20402;-75
2021/10/31 10:17:42;;;;;;;4.82;2.00;;;14.90;99.90;;;;;;4123640;28;20046;-75
2021/10/31 10:20:00;;;;;;;3.47;1.85;;;14.90;99.90;;;;;;4119446;28;20038;-75
2021/10/31 10:22:07;;;;;;;3.17;2.00;;;15.00;99.90;;;;;;4122342;28;20129;-75
2021/10/31 10:24:10;;;;;;;5.38;2.00;;;15.10;99.90;;;;;;4124870;28;20037;-75
2021/10/31 10:26:11;;;;;;;3.00;1.65;;;15.10;99.90;;;;;;4127128;28;20026;-75
2021/10/31 10:28:23;;;;;;;3.60;1.48;;;15.20;99.90;;;;;;4126187;28;20056;-75
2021/10/31 10:30:25;;;;;;;2.63;1.23;;;15.20;99.90;;;;;;4123921;28;20042;-75
2021/10/31 10:32:27;;;;;;;2.90;1.70;;;15.30;99.90;;;;;;4123447;28;20088;-75
2021/10/31 10:34:47;;;;;;;3.13;1.50;;;15.40;99.90;;;;;;4123089;28;20058;-75
2021/10/31 10:36:49;;;;;;;2.28;1.40;;;15.40;99.90;;;;;;4120220;28;20899;-75
2021/10/31 10:39:02;;;;;;;3.45;1.52;;;15.50;99.90;;;;;;4126402;28;20042;-75
2021/10/31 10:41:03;;;;;;;3.90;1.50;;;15.60;99.90;;;;;;4124715;28;20137;-75
2021/10/31 10:43:04;;;;;;;2.50;1.40;;;15.60;99.90;;;;;;4121772;28;20074;-74